Time;durP1;ratioP1;P1;durP2;ratioP2;P2;SDS_P1;SDS_P2;PMS_P1;PMS_P2;Temp;Humidity;BMP_temperature;BMP_pressure;BME280_temperature;BME280_humidity;BME280_pressure;Samples;Min_cycle;Max_cycle;Signal;HPM_P1;HPM_P2
2023/05/04 00:02:18;;;;;;;14.33;9.43;;;8.20;99.90;;;;;;4915017;29;20711;-77
2023/05/04 00:04:45;;;;;;;14.00;9.87;;;8.20;99.90;;;;;;4914547;29;20240;-76
2023/05/04 00:07:12;;;;;;;15.73;9.93;;;8.20;99.90;;;;;;4913096;29;20218;-76
2023/05/04 00:09:39;;;;;;;14.00;9.57;;;8.20;99.90;;;;;;4921253;29;20214;-76
2023/05/04 00:12:06;;;;;;;12.13;8.70;;;8.10;99.90;;;;;;4924167;29;20225;-77
2023/05/04 00:14:34;;;;;;;14.73;9.57;;;8.10;99.90;;;;;;4914525;29;20238;-77
2023/05/04 00:17:03;;;;;;;15.63;9.40;;;8.10;99.90;;;;;;4914406;29;20293;-77
2023/05/04 00:19:31;;;;;;;13.90;9.23;;;8.10;99.90;;;;;;4914478;29;20210;-76
2023/05/04 00:21:58;;;;;;;14.57;9.27;;;8.00;99.90;;;;;;4916397;29;20205;-75
2023/05/04 00:24:25;;;;;;;15.67;9.80;;;8.10;99.90;;;;;;4902946;29;20932;-76
2023/05/04 00:26:51;;;;;;;15.77;9.83;;;8.00;99.90;;;;;;4906699;29;20299;-75
2023/05/04 00:29:18;;;;;;;13.53;9.97;;;8.00;99.90;;;;;;4912701;29;20215;-76
2023/05/04 00:31:45;;;;;;;15.03;9.73;;;8.00;99.90;;;;;;4914339;29;20308;-76
2023/05/04 00:34:12;;;;;;;12.93;9.10;;;8.00;99.90;;;;;;4914036;29;21028;-76
2023/05/04 00:36:38;;;;;;;14.93;9.27;;;8.00;99.90;;;;;;4914920;29;20208;-77
2023/05/04 00:39:05;;;;;;;17.03;9.17;;;7.90;99.90;;;;;;4913966;29;20306;-77
2023/05/04 00:41:32;;;;;;;13.93;9.17;;;7.90;99.90;;;;;;4904886;29;20265;-79
2023/05/04 00:43:59;;;;;;;13.23;9.40;;;7.90;99.90;;;;;;4912712;29;20212;-76
2023/05/04 00:46:26;;;;;;;12.67;8.60;;;8.00;99.90;;;;;;4910192;29;20234;-77
2023/05/04 00:48:53;;;;;;;14.40;9.33;;;7.90;99.90;;;;;;4912624;29;20213;-75
2023/05/04 00:51:22;;;;;;;15.47;8.80;;;8.00;99.90;;;;;;4913732;29;20694;-75
2023/05/04 00:53:49;;;;;;;16.37;8.90;;;7.90;99.90;;;;;;4913276;29;20269;-76
2023/05/04 00:56:16;;;;;;;13.43;9.17;;;7.90;99.90;;;;;;4913394;29;20613;-77
2023/05/04 00:58:44;;;;;;;13.33;8.90;;;7.90;99.90;;;;;;4912905;29;20626;-76
2023/05/04 01:01:11;;;;;;;15.07;9.20;;;7.90;99.90;;;;;;4914778;29;20588;-76
2023/05/04 01:03:39;;;;;;;12.40;9.03;;;7.90;99.90;;;;;;4911933;29;20208;-79
2023/05/04 01:06:23;;;;;;;15.10;8.97;;;7.80;99.90;;;;;;4919564;29;20228;-77
2023/05/04 01:09:17;;;;;;;14.50;8.93;;;7.80;99.90;;;;;;4912615;29;20206;-77
2023/05/04 01:11:57;;;;;;;15.97;8.90;;;7.80;99.90;;;;;;4890941;29;20305;-76
2023/05/04 01:14:24;;;;;;;16.20;9.30;;;7.70;99.90;;;;;;4914272;29;20751;-75
2023/05/04 01:16:57;;;;;;;13.40;8.83;;;7.70;99.90;;;;;;4913477;29;20213;-76
2023/05/04 01:19:26;;;;;;;16.50;8.97;;;7.70;99.90;;;;;;4914007;29;20971;-77
2023/05/04 01:21:55;;;;;;;13.17;8.77;;;7.70;99.90;;;;;;4913471;29;20217;-77
2023/05/04 01:24:23;;;;;;;12.10;8.63;;;7.60;99.90;;;;;;4913387;29;20233;-78
2023/05/04 01:27:07;;;;;;;16.77;9.00;;;7.60;99.90;;;;;;4913134;29;20216;-76
2023/05/04 01:29:39;;;;;;;16.67;9.00;;;7.60;99.90;;;;;;4893288;29;20231;-76
2023/05/04 01:32:07;;;;;;;15.50;9.13;;;7.60;99.90;;;;;;4913111;29;20223;-79
2023/05/04 01:34:35;;;;;;;14.37;7.47;;;7.60;99.90;;;;;;4912793;29;20331;-78
2023/05/04 01:37:02;;;;;;;15.17;8.70;;;7.50;99.90;;;;;;4900769;29;20244;-77
2023/05/04 01:39:29;;;;;;;14.07;8.10;;;7.50;99.90;;;;;;4909560;29;20251;-77
2023/05/04 01:41:56;;;;;;;13.40;9.17;;;7.50;99.90;;;;;;4913218;29;20255;-77
2023/05/04 01:44:23;;;;;;;12.50;8.47;;;7.50;99.90;;;;;;4896123;29;20230;-76
2023/05/04 01:46:49;;;;;;;15.13;8.70;;;7.50;99.90;;;;;;4913914;29;20198;-75
2023/05/04 01:49:16;;;;;;;10.30;7.60;;;7.50;99.90;;;;;;4896073;29;20253;-77
2023/05/04 01:51:44;;;;;;;11.67;7.67;;;7.50;99.90;;;;;;4912419;29;20214;-77
2023/05/04 01:54:11;;;;;;;12.17;8.43;;;7.50;99.90;;;;;;4912538;29;20247;-75
2023/05/04 01:56:38;;;;;;;12.43;8.27;;;7.60;99.90;;;;;;4914059;29;20237;-76
2023/05/04 01:59:05;;;;;;;13.80;8.37;;;7.50;99.90;;;;;;4912832;29;20223;-78
2023/05/04 02:01:31;;;;;;;14.20;8.47;;;7.50;99.90;;;;;;4912986;29;20211;-75
2023/05/04 02:03:58;;;;;;;12.50;7.80;;;7.50;99.90;;;;;;4902436;29;20210;-77
2023/05/04 02:06:25;;;;;;;13.67;8.57;;;7.60;99.90;;;;;;4900964;29;20281;-77
2023/05/04 02:08:52;;;;;;;12.90;7.63;;;7.60;99.90;;;;;;4908621;29;20294;-76
2023/05/04 02:11:19;;;;;;;15.30;8.37;;;7.50;99.90;;;;;;4893659;29;20269;-78
2023/05/04 02:13:46;;;;;;;12.47;7.97;;;7.50;99.90;;;;;;4907912;29;20287;-77
2023/05/04 02:16:13;;;;;;;12.83;8.13;;;7.50;99.90;;;;;;4894758;29;20649;-76
2023/05/04 02:18:40;;;;;;;12.10;8.13;;;7.40;99.90;;;;;;4912659;29;20236;-78
2023/05/04 02:21:07;;;;;;;13.67;8.03;;;7.40;99.90;;;;;;4910621;29;20341;-77
2023/05/04 02:23:33;;;;;;;13.17;8.57;;;7.40;99.90;;;;;;4912585;29;20218;-76
2023/05/04 02:26:00;;;;;;;14.27;8.80;;;7.40;99.90;;;;;;4912456;29;20218;-76
2023/05/04 02:28:27;;;;;;;14.33;8.13;;;7.40;99.90;;;;;;4912329;29;20665;-77
2023/05/04 02:30:53;;;;;;;12.83;8.03;;;7.40;99.90;;;;;;4897072;29;20325;-76
2023/05/04 02:33:20;;;;;;;14.10;8.93;;;7.30;99.90;;;;;;4912317;29;20308;-76
2023/05/04 02:35:47;;;;;;;14.30;8.37;;;7.30;99.90;;;;;;4885358;29;20297;-78
2023/05/04 02:38:14;;;;;;;16.57;8.93;;;7.20;99.90;;;;;;4907947;29;20222;-77
2023/05/04 02:40:40;;;;;;;16.30;8.70;;;7.20;99.90;;;;;;4912312;29;20305;-77
2023/05/04 02:43:07;;;;;;;16.23;9.50;;;7.20;99.90;;;;;;4895373;29;20220;-77
2023/05/04 02:45:34;;;;;;;15.57;8.77;;;7.10;99.90;;;;;;4896420;29;20263;-77
2023/05/04 02:48:01;;;;;;;14.80;8.73;;;7.10;99.90;;;;;;4907824;29;20233;-76
2023/05/04 02:50:30;;;;;;;15.33;8.70;;;7.10;99.90;;;;;;4911981;29;20212;-76
2023/05/04 02:52:56;;;;;;;12.63;8.07;;;7.10;99.90;;;;;;4912111;29;20231;-76
2023/05/04 02:55:23;;;;;;;13.20;8.63;;;7.10;99.90;;;;;;4911760;28;20876;-76
2023/05/04 02:57:50;;;;;;;14.53;8.23;;;7.10;99.90;;;;;;4912592;29;20571;-75
2023/05/04 03:00:17;;;;;;;14.23;8.37;;;7.10;99.90;;;;;;4919456;29;20729;-78
2023/05/04 03:02:44;;;;;;;17.27;8.57;;;7.10;99.90;;;;;;4918544;29;20367;-77
2023/05/04 03:05:10;;;;;;;15.20;8.93;;;7.00;99.90;;;;;;4912910;29;20276;-77
2023/05/04 03:07:37;;;;;;;16.03;9.40;;;7.00;99.90;;;;;;4895878;29;20218;-76
2023/05/04 03:10:04;;;;;;;14.33;8.43;;;7.00;99.90;;;;;;4910750;29;20212;-77
2023/05/04 03:12:32;;;;;;;18.00;8.83;;;7.00;99.90;;;;;;4912408;29;20260;-77
2023/05/04 03:14:58;;;;;;;14.70;9.00;;;6.90;99.90;;;;;;4911844;29;20587;-77
2023/05/04 03:17:26;;;;;;;20.63;10.03;;;6.90;99.90;;;;;;4912162;29;20219;-76
2023/05/04 03:19:53;;;;;;;16.47;9.67;;;6.90;99.90;;;;;;4911937;29;20324;-77
2023/05/04 03:22:20;;;;;;;14.93;9.23;;;6.90;99.90;;;;;;4914243;29;20238;-77
2023/05/04 03:24:46;;;;;;;13.87;8.80;;;6.90;99.90;;;;;;4899024;29;20284;-75
2023/05/04 03:27:13;;;;;;;17.40;10.33;;;6.90;99.90;;;;;;4915280;29;20219;-76
2023/05/04 03:29:40;;;;;;;18.83;9.97;;;6.90;99.90;;;;;;4917513;29;20222;-78
2023/05/04 03:32:07;;;;;;;16.70;9.30;;;6.90;99.90;;;;;;4916168;29;20225;-75
2023/05/04 03:34:34;;;;;;;13.00;8.47;;;6.90;99.90;;;;;;4898609;29;20247;-76
2023/05/04 03:37:01;;;;;;;21.20;9.80;;;6.90;99.90;;;;;;4912315;29;20216;-76
2023/05/04 03:39:28;;;;;;;18.37;9.60;;;6.90;99.90;;;;;;4911915;29;20693;-76
2023/05/04 03:41:54;;;;;;;15.60;9.47;;;6.90;99.90;;;;;;4914838;29;20761;-76
2023/05/04 03:44:21;;;;;;;15.60;9.47;;;6.90;99.90;;;;;;4915151;29;20227;-79
2023/05/04 03:46:48;;;;;;;16.07;9.30;;;6.90;99.90;;;;;;4915088;29;20217;-77
2023/05/04 03:49:14;;;;;;;15.33;9.90;;;6.90;99.90;;;;;;4893652;29;20218;-75
2023/05/04 03:51:42;;;;;;;16.73;9.73;;;6.90;99.90;;;;;;4914918;29;20220;-76
2023/05/04 03:54:09;;;;;;;18.80;11.00;;;6.80;99.90;;;;;;4915295;29;20356;-76
2023/05/04 03:56:35;;;;;;;17.37;10.37;;;6.80;99.90;;;;;;4923962;29;20264;-74
2023/05/04 03:59:02;;;;;;;20.63;10.00;;;6.80;99.90;;;;;;4922335;29;20228;-76
2023/05/04 04:01:29;;;;;;;16.50;9.60;;;6.80;99.90;;;;;;4915697;29;20333;-77
2023/05/04 04:03:56;;;;;;;14.63;10.00;;;6.80;99.90;;;;;;4915431;29;20956;-77
2023/05/04 04:06:24;;;;;;;19.10;11.13;;;6.80;99.90;;;;;;4918350;29;20209;-75
2023/05/04 04:08:51;;;;;;;21.13;10.30;;;6.80;99.90;;;;;;4910687;29;20273;-77
2023/05/04 04:11:18;;;;;;;16.03;9.90;;;6.80;99.90;;;;;;4914404;29;20244;-78
2023/05/04 04:13:44;;;;;;;16.73;10.87;;;6.80;99.90;;;;;;4901787;29;20210;-76
2023/05/04 04:16:11;;;;;;;21.27;10.87;;;7.20;99.90;;;;;;4911045;29;20308;-79
2023/05/04 04:18:38;;;;;;;20.20;10.47;;;6.80;99.90;;;;;;4914246;29;20221;-77
2023/05/04 04:21:05;;;;;;;18.80;10.37;;;6.70;99.90;;;;;;4914150;29;20307;-77
2023/05/04 04:23:32;;;;;;;20.77;11.17;;;6.80;99.90;;;;;;4917942;29;20259;-75
2023/05/04 04:26:00;;;;;;;15.63;9.43;;;6.80;99.90;;;;;;4914077;29;20212;-78
2023/05/04 04:28:27;;;;;;;14.67;9.73;;;6.80;99.90;;;;;;4914015;29;20282;-78
2023/05/04 04:30:54;;;;;;;18.50;10.90;;;6.80;99.90;;;;;;4914218;29;20737;-77
2023/05/04 04:33:21;;;;;;;17.27;11.03;;;6.80;99.90;;;;;;4914003;29;20618;-77
2023/05/04 04:35:51;;;;;;;18.17;10.80;;;6.80;99.90;;;;;;4911402;29;20224;-78
2023/05/04 04:38:18;;;;;;;16.50;9.97;;;6.90;99.90;;;;;;4911115;29;20304;-78
2023/05/04 04:40:44;;;;;;;18.93;11.03;;;6.90;99.90;;;;;;4914007;29;20221;-77
2023/05/04 04:43:12;;;;;;;22.40;11.47;;;7.00;99.90;;;;;;4915326;29;20581;-76
2023/05/04 04:45:40;;;;;;;20.27;11.60;;;7.10;99.90;;;;;;4893327;29;20236;-77
2023/05/04 04:48:07;;;;;;;24.23;12.57;;;7.10;99.90;;;;;;4914073;29;20248;-77
2023/05/04 04:50:37;;;;;;;17.53;11.27;;;7.20;99.90;;;;;;4913695;29;20292;-77
2023/05/04 04:53:04;;;;;;;22.07;12.43;;;7.30;99.90;;;;;;4914570;29;20265;-77
2023/05/04 04:55:31;;;;;;;20.40;10.67;;;7.40;99.90;;;;;;4914845;29;20284;-76
2023/05/04 04:57:58;;;;;;;23.23;11.73;;;7.50;99.90;;;;;;4915008;29;20313;-78
2023/05/04 05:00:25;;;;;;;19.83;12.03;;;7.50;99.90;;;;;;4891953;29;20232;-76
2023/05/04 05:02:52;;;;;;;25.20;12.77;;;7.70;99.90;;;;;;4913974;29;20340;-77
2023/05/04 05:05:20;;;;;;;20.50;12.53;;;7.80;99.90;;;;;;4915931;29;20207;-77
2023/05/04 05:07:47;;;;;;;19.33;11.57;;;7.80;99.90;;;;;;4913894;29;20583;-78
2023/05/04 05:10:13;;;;;;;20.03;11.43;;;7.90;99.90;;;;;;4913613;29;20570;-78
2023/05/04 05:12:40;;;;;;;18.83;12.13;;;7.90;99.90;;;;;;4911361;29;20228;-76
2023/05/04 05:15:08;;;;;;;21.00;12.47;;;8.00;99.90;;;;;;4888336;29;20235;-77
2023/05/04 05:17:36;;;;;;;19.67;11.73;;;8.10;99.90;;;;;;4914973;29;20216;-76
2023/05/04 05:20:09;;;;;;;22.50;11.23;;;8.10;99.90;;;;;;4913569;29;20561;-77
2023/05/04 05:22:39;;;;;;;19.20;11.30;;;8.20;99.90;;;;;;4915635;29;20571;-79
2023/05/04 05:25:06;;;;;;;19.30;11.67;;;8.20;99.90;;;;;;4911720;29;20623;-80
2023/05/04 05:27:34;;;;;;;22.27;12.43;;;8.30;99.90;;;;;;4914323;29;20216;-78
2023/05/04 05:30:01;;;;;;;19.83;11.43;;;8.40;99.90;;;;;;4918366;29;20217;-77
2023/05/04 05:32:29;;;;;;;20.10;12.17;;;8.50;99.90;;;;;;4915586;29;20216;-77
2023/05/04 05:34:56;;;;;;;18.20;12.10;;;8.60;99.90;;;;;;4917125;29;20252;-80
2023/05/04 05:37:23;;;;;;;21.20;12.73;;;8.60;99.90;;;;;;4896091;29;20304;-78
2023/05/04 05:39:50;;;;;;;25.70;13.30;;;8.70;99.90;;;;;;4913204;29;20213;-76
2023/05/04 05:42:17;;;;;;;22.50;14.57;;;8.60;99.90;;;;;;4887615;29;20312;-79
2023/05/04 05:44:43;;;;;;;22.73;11.77;;;8.80;99.90;;;;;;4910508;29;20263;-79
2023/05/04 05:47:10;;;;;;;19.43;11.87;;;9.00;99.90;;;;;;4911942;29;20296;-78
2023/05/04 05:49:37;;;;;;;18.73;12.60;;;8.90;99.90;;;;;;4925136;29;20292;-78
2023/05/04 05:52:04;;;;;;;23.53;13.70;;;9.00;99.90;;;;;;4922818;29;20620;-78
2023/05/04 05:54:31;;;;;;;19.73;12.20;;;9.10;99.90;;;;;;4913167;29;20237;-78
2023/05/04 05:56:58;;;;;;;18.33;12.13;;;9.30;99.90;;;;;;4908967;29;20239;-77
2023/05/04 05:59:24;;;;;;;21.93;12.90;;;9.70;99.90;;;;;;4917214;29;20584;-77
2023/05/04 06:01:51;;;;;;;15.13;11.70;;;10.20;99.90;;;;;;4895035;29;20255;-76
2023/05/04 06:04:18;;;;;;;15.63;10.80;;;10.70;99.90;;;;;;4912851;29;20329;-76
2023/05/04 06:06:45;;;;;;;19.00;11.93;;;11.20;99.90;;;;;;4912822;29;20254;-78
2023/05/04 06:09:12;;;;;;;16.37;11.47;;;11.60;99.90;;;;;;4912226;29;20214;-78
2023/05/04 06:11:39;;;;;;;16.33;11.17;;;12.00;99.90;;;;;;4911832;29;20217;-76
2023/05/04 06:14:06;;;;;;;16.30;12.20;;;12.10;99.90;;;;;;4911813;29;20216;-77
2023/05/04 06:16:33;;;;;;;17.07;11.80;;;12.20;99.90;;;;;;4907321;29;20277;-80
2023/05/04 06:18:59;;;;;;;18.47;12.17;;;12.20;99.90;;;;;;4912365;29;20222;-76
2023/05/04 06:21:26;;;;;;;19.37;12.53;;;12.20;99.90;;;;;;4907830;29;20677;-80
2023/05/04 06:23:53;;;;;;;19.93;11.90;;;12.20;99.90;;;;;;4912466;29;20208;-77
2023/05/04 06:26:20;;;;;;;15.60;10.93;;;12.40;99.90;;;;;;4899943;29;20346;-80
2023/05/04 06:28:47;;;;;;;19.20;11.63;;;12.40;99.90;;;;;;4909916;29;20213;-78
2023/05/04 06:31:14;;;;;;;15.77;11.40;;;12.50;99.90;;;;;;4892115;29;20231;-76
2023/05/04 06:33:41;;;;;;;18.30;11.30;;;12.50;99.90;;;;;;4910154;29;20538;-76
2023/05/04 06:36:08;;;;;;;17.77;10.87;;;12.60;99.90;;;;;;4909998;29;20229;-76
2023/05/04 06:38:34;;;;;;;18.27;12.77;;;12.70;99.90;;;;;;4910377;29;20258;-78
2023/05/04 06:41:04;;;;;;;16.67;10.33;;;13.00;99.90;;;;;;4911536;29;20205;-77
2023/05/04 06:43:31;;;;;;;14.30;11.07;;;13.30;99.90;;;;;;4910507;29;20218;-78
2023/05/04 06:46:04;;;;;;;15.40;10.27;;;13.70;99.90;;;;;;4914304;29;20808;-76
2023/05/04 06:48:31;;;;;;;13.70;10.60;;;;;;;;;;4918283;29;20217;-77
2023/05/04 06:50:58;;;;;;;15.90;10.03;;;14.10;99.90;;;;;;4911163;29;20245;-77
2023/05/04 06:53:28;;;;;;;11.27;9.97;;;14.40;99.90;;;;;;4912161;29;20218;-80
2023/05/04 06:55:54;;;;;;;17.52;11.13;;;14.80;99.90;;;;;;4911995;29;20245;-78
2023/05/04 06:58:22;;;;;;;11.63;9.55;;;14.90;99.90;;;;;;4899126;29;20220;-78
2023/05/04 07:00:48;;;;;;;15.07;10.18;;;15.00;99.90;;;;;;4914742;29;20231;-78
2023/05/04 07:03:15;;;;;;;16.13;10.32;;;15.20;99.90;;;;;;4917838;29;20210;-76
2023/05/04 07:05:44;;;;;;;14.07;9.75;;;15.70;99.90;;;;;;4912701;29;20217;-78
2023/05/04 07:08:11;;;;;;;13.52;10.15;;;16.10;99.90;;;;;;4915309;29;20237;-73
2023/05/04 07:10:38;;;;;;;12.68;10.00;;;16.40;99.90;;;;;;4905280;29;20625;-74
2023/05/04 07:13:05;;;;;;;14.32;9.35;;;16.60;99.90;;;;;;4913975;29;20206;-74
2023/05/04 07:15:32;;;;;;;12.98;9.20;;;16.80;99.90;;;;;;4915223;29;20253;-75
2023/05/04 07:18:00;;;;;;;12.45;10.02;;;16.80;99.90;;;;;;4914427;29;20206;-74
2023/05/04 07:20:27;;;;;;;12.35;9.60;;;16.60;99.90;;;;;;4915018;29;20218;-75
2023/05/04 07:22:57;;;;;;;11.77;8.98;;;16.60;99.90;;;;;;4910485;29;20679;-74
2023/05/04 07:25:25;;;;;;;12.25;9.50;;;16.70;99.90;;;;;;4898275;29;20210;-74
2023/05/04 07:27:52;;;;;;;13.32;9.40;;;16.80;99.90;;;;;;4910409;29;20209;-74
2023/05/04 07:30:20;;;;;;;13.00;9.57;;;16.80;99.90;;;;;;4915004;29;20226;-75
2023/05/04 07:32:47;;;;;;;12.38;8.50;;;16.70;99.90;;;;;;4911356;29;20656;-75
2023/05/04 07:35:14;;;;;;;14.63;9.55;;;16.60;99.90;;;;;;4914712;29;20229;-74
2023/05/04 07:37:40;;;;;;;12.15;8.32;;;16.60;99.90;;;;;;4910839;29;20220;-73
2023/05/04 07:40:08;;;;;;;14.05;9.05;;;16.70;99.90;;;;;;4896519;29;20302;-75
2023/05/04 07:42:35;;;;;;;11.00;8.30;;;16.90;99.90;;;;;;4911082;29;20292;-75
2023/05/04 07:45:02;;;;;;;15.00;9.05;;;17.30;99.90;;;;;;4915387;29;20304;-74
2023/05/04 07:47:29;;;;;;;15.82;9.10;;;17.40;99.90;;;;;;4915704;29;20214;-76
2023/05/04 07:49:56;;;;;;;9.73;8.00;;;17.60;99.90;;;;;;4915127;29;20220;-75
2023/05/04 07:52:22;;;;;;;11.68;8.30;;;17.70;99.90;;;;;;4914889;29;20241;-76
2023/05/04 07:54:52;;;;;;;13.93;9.18;;;17.80;99.90;;;;;;4914819;29;20333;-73
2023/05/04 07:57:20;;;;;;;10.93;8.60;;;17.90;99.90;;;;;;4897692;29;20273;-74
2023/05/04 07:59:47;;;;;;;11.93;8.82;;;18.10;99.90;;;;;;4911548;29;20226;-73
2023/05/04 08:02:14;;;;;;;11.30;9.15;;;18.20;99.90;;;;;;4914335;29;20245;-73
2023/05/04 08:04:41;;;;;;;12.18;8.55;;;18.30;99.90;;;;;;4914621;29;20269;-74
2023/05/04 08:07:08;;;;;;;12.55;8.88;;;18.50;99.90;;;;;;4896734;29;20735;-74
2023/05/04 08:09:34;;;;;;;16.70;9.30;;;18.70;99.90;;;;;;4914681;29;20675;-73
2023/05/04 08:12:03;;;;;;;13.00;8.55;;;18.60;99.90;;;;;;4914560;29;20253;-73
2023/05/04 08:14:30;;;;;;;10.35;8.85;;;18.60;99.90;;;;;;4914372;29;20273;-77
2023/05/04 08:16:56;;;;;;;11.77;8.38;;;18.60;99.90;;;;;;4914464;29;20349;-71
2023/05/04 08:19:23;;;;;;;12.82;9.00;;;18.70;99.90;;;;;;4892769;29;20301;-73
2023/05/04 08:21:50;;;;;;;13.63;8.52;;;18.90;99.90;;;;;;4918102;29;20691;-74
2023/05/04 08:24:17;;;;;;;10.50;8.50;;;19.10;99.90;;;;;;4913899;29;20281;-75
2023/05/04 08:26:44;;;;;;;10.65;8.27;;;19.40;99.90;;;;;;4914595;29;20300;-74
2023/05/04 08:29:21;;;;;;;12.07;8.50;;;19.70;99.90;;;;;;4898886;29;20237;-75
2023/05/04 08:31:48;;;;;;;12.27;9.30;;;19.90;99.90;;;;;;4914092;29;20301;-75
2023/05/04 08:34:15;;;;;;;14.13;9.77;;;20.20;99.90;;;;;;4914042;29;20218;-75
2023/05/04 08:36:42;;;;;;;14.55;8.75;;;20.30;99.90;;;;;;4913870;29;20611;-75
2023/05/04 08:39:10;;;;;;;12.90;8.25;;;20.40;99.90;;;;;;4913762;29;20213;-73
2023/05/04 08:41:40;;;;;;;16.83;8.48;;;20.20;99.90;;;;;;4885691;29;20207;-74
2023/05/04 08:44:09;;;;;;;10.77;8.48;;;20.10;99.90;;;;;;4910139;29;20238;-75
2023/05/04 08:46:39;;;;;;;14.43;9.45;;;20.10;99.90;;;;;;4897225;29;20214;-75
2023/05/04 08:49:06;;;;;;;13.32;9.50;;;20.30;99.90;;;;;;4914213;29;20205;-75
2023/05/04 08:51:36;;;;;;;12.43;8.73;;;20.30;99.90;;;;;;4913448;29;20297;-75
2023/05/04 08:54:09;;;;;;;11.90;9.23;;;20.00;99.90;;;;;;4915646;29;20285;-74
2023/05/04 08:56:37;;;;;;;11.65;9.40;;;20.10;99.90;;;;;;4896524;29;20248;-74
2023/05/04 08:59:07;;;;;;;11.30;9.20;;;20.30;99.90;;;;;;4903119;29;20245;-73
2023/05/04 09:01:36;;;;;;;12.40;8.68;;;20.40;99.90;;;;;;4913648;29;20221;-74
2023/05/04 09:04:04;;;;;;;13.23;8.85;;;20.40;99.90;;;;;;4913392;29;20297;-74
2023/05/04 09:06:31;;;;;;;12.27;9.38;;;20.40;99.90;;;;;;4913355;29;20206;-75
2023/05/04 09:08:57;;;;;;;12.23;8.18;;;20.20;99.90;;;;;;4912028;29;20227;-76
2023/05/04 09:11:24;;;;;;;12.70;9.45;;;20.00;99.90;;;;;;4909476;29;20675;-76
2023/05/04 09:13:51;;;;;;;13.43;9.00;;;20.00;99.90;;;;;;4911966;29;20206;-77
2023/05/04 09:16:18;;;;;;;11.65;8.27;;;20.00;99.90;;;;;;4910274;29;20238;-74
2023/05/04 09:18:46;;;;;;;14.38;9.38;;;20.10;99.90;;;;;;4905152;29;20214;-76
2023/05/04 09:21:15;;;;;;;12.88;9.20;;;20.10;99.90;;;;;;4913443;29;20293;-80
2023/05/04 09:23:50;;;;;;;10.57;8.20;;;20.10;99.90;;;;;;4913948;29;20249;-77
2023/05/04 09:26:27;;;;;;;16.40;8.57;;;20.10;99.90;;;;;;4912931;29;20221;-77
2023/05/04 09:28:53;;;;;;;10.77;8.98;;;20.10;99.90;;;;;;4911132;29;20216;-77
2023/05/04 09:31:22;;;;;;;14.85;8.88;;;20.10;99.90;;;;;;4912711;29;20289;-79
2023/05/04 09:33:49;;;;;;;13.73;8.85;;;20.10;99.90;;;;;;4913104;29;20213;-77
2023/05/04 09:36:20;;;;;;;19.50;9.18;;;20.10;99.90;;;;;;4920256;29;20292;-79
2023/05/04 09:38:47;;;;;;;16.33;8.88;;;20.10;99.90;;;;;;4915342;29;20233;-78
2023/05/04 09:41:14;;;;;;;16.27;9.18;;;20.00;99.90;;;;;;4914361;29;20691;-81
2023/05/04 09:43:43;;;;;;;11.32;8.55;;;19.80;99.90;;;;;;4912905;29;20249;-81
2023/05/04 09:46:17;;;;;;;11.90;8.60;;;19.90;99.90;;;;;;4909055;29;20286;-79
2023/05/04 09:48:51;;;;;;;12.77;9.80;;;20.10;99.90;;;;;;4911637;29;20212;-78
2023/05/04 09:51:21;;;;;;;13.18;8.35;;;20.40;99.90;;;;;;4912612;29;20670;-78
2023/05/04 09:53:49;;;;;;;13.57;8.77;;;20.50;99.90;;;;;;4912653;29;20229;-78
2023/05/04 09:56:28;;;;;;;11.38;8.65;;;20.50;99.90;;;;;;4922030;28;20256;-77
2023/05/04 09:58:57;;;;;;;12.70;7.82;;;20.60;99.90;;;;;;4911413;29;20245;-76
2023/05/04 10:01:30;;;;;;;13.15;7.80;;;20.60;99.90;;;;;;4911401;29;20216;-76
2023/05/04 10:03:58;;;;;;;13.27;8.48;;;20.70;99.90;;;;;;4910812;29;20253;-78
2023/05/04 10:06:28;;;;;;;10.27;8.50;;;20.80;99.90;;;;;;4914431;29;20626;-76
2023/05/04 10:08:57;;;;;;;13.40;9.38;;;21.00;99.90;;;;;;4911161;29;20409;-78
2023/05/04 10:11:25;;;;;;;11.40;8.38;;;21.10;99.90;;;;;;4911967;29;20224;-78
2023/05/04 10:13:55;;;;;;;12.73;8.77;;;21.30;99.90;;;;;;4895109;29;20217;-77
2023/05/04 10:16:40;;;;;;;11.60;7.88;;;21.30;99.90;;;;;;4911949;29;20283;-80
2023/05/04 10:19:34;;;;;;;11.43;8.10;;;21.50;99.90;;;;;;4912377;29;20300;-78
2023/05/04 10:22:25;;;;;;;10.60;8.80;;;21.60;99.90;;;;;;4909949;29;20594;-77
2023/05/04 10:25:23;;;;;;;11.57;8.43;;;21.70;99.90;;;;;;4903942;29;20237;-77
2023/05/04 10:27:53;;;;;;;10.07;7.95;;;21.90;99.90;;;;;;4910971;29;20592;-79
2023/05/04 10:30:21;;;;;;;18.08;8.43;;;22.00;99.90;;;;;;4909338;29;20221;-77
2023/05/04 10:32:56;;;;;;;17.83;8.30;;;22.30;99.90;;;;;;4911832;29;20304;-78
2023/05/04 10:35:24;;;;;;;16.45;8.48;;;22.50;99.90;;;;;;4912018;29;20242;-78
2023/05/04 10:37:53;;;;;;;13.70;9.15;;;22.50;99.90;;;;;;4918684;29;20226;-77
2023/05/04 10:40:40;;;;;;;11.00;8.30;;;22.50;99.90;;;;;;4908367;29;20630;-79
2023/05/04 10:43:10;;;;;;;12.75;7.70;;;22.60;99.90;;;;;;4912205;29;20638;-80
2023/05/04 10:45:39;;;;;;;14.82;8.02;;;22.70;99.90;;;;;;4909484;29;20245;-77
2023/05/04 10:48:07;;;;;;;12.10;7.78;;;22.80;99.90;;;;;;4911624;29;20623;-78
2023/05/04 10:51:15;;;;;;;11.15;8.07;;;22.70;99.90;;;;;;4910941;29;20220;-77
2023/05/04 10:54:19;;;;;;;12.23;7.75;;;22.50;99.90;;;;;;4912362;29;20217;-79
2023/05/04 10:57:55;;;;;;;;;;;;;;;;;;;;;
2023/05/04 11:13:32;;;;;;;;;;;;;;;;;;;;;
2023/05/04 11:20:23;;;;;;;13.63;6.75;;;22.20;99.00;;;;;;4736523;30;20208;-81
2023/05/04 11:27:29;;;;;;;;;;;;;;;;;;;;;
2023/05/04 11:30:09;;;;;;;12.13;6.75;;;22.00;97.50;;;;;;4678988;30;20554;-80
2023/05/04 11:32:58;;;;;;;10.77;6.60;;;22.10;97.80;;;;;;4664145;30;20210;-79
2023/05/04 11:35:28;;;;;;;8.90;6.47;;;22.20;98.50;;;;;;4681057;30;20198;-79
2023/05/04 11:37:58;;;;;;;10.88;6.80;;;22.40;98.10;;;;;;4720332;29;20239;-79
2023/05/04 11:40:26;;;;;;;10.55;6.75;;;22.50;97.90;;;;;;4830113;29;20208;-80
2023/05/04 11:42:55;;;;;;;9.45;6.13;;;22.50;98.00;;;;;;4861096;29;20226;-80
2023/05/04 11:45:25;;;;;;;8.57;5.97;;;22.50;97.90;;;;;;4857718;29;20251;-80
2023/05/04 11:47:55;;;;;;;10.05;6.30;;;22.60;97.70;;;;;;4857794;29;20527;-79
2023/05/04 11:50:23;;;;;;;9.73;6.32;;;22.50;97.60;;;;;;4857354;29;20208;-79
2023/05/04 11:52:50;;;;;;;9.70;5.68;;;22.70;96.80;;;;;;4857567;29;20739;-79
2023/05/04 11:55:30;;;;;;;9.60;6.05;;;22.90;96.30;;;;;;4866738;29;20740;-80
2023/05/04 11:58:10;;;;;;;9.40;6.10;;;23.00;95.80;;;;;;4873675;29;20227;-80
2023/05/04 12:00:40;;;;;;;13.95;6.65;;;23.00;95.60;;;;;;4880315;29;20695;-80
2023/05/04 12:03:13;;;;;;;10.90;5.53;;;23.00;95.20;;;;;;4875885;29;20240;-82
2023/05/04 12:05:51;;;;;;;21.05;7.13;;;23.00;94.60;;;;;;4883323;29;20296;-79
2023/05/04 12:08:23;;;;;;;76.85;10.75;;;23.10;94.40;;;;;;4916361;29;20218;-78
2023/05/04 12:10:49;;;;;;;9.80;5.93;;;23.10;94.30;;;;;;4916181;29;20246;-80
2023/05/04 12:13:16;;;;;;;10.00;6.18;;;23.10;94.20;;;;;;4917295;29;20823;-81
2023/05/04 12:15:43;;;;;;;7.80;5.63;;;23.10;94.20;;;;;;4916675;29;20245;-79
2023/05/04 12:18:21;;;;;;;10.10;6.32;;;23.10;94.10;;;;;;4915893;29;20239;-79
2023/05/04 12:20:49;;;;;;;10.95;6.57;;;23.20;94.60;;;;;;4896173;29;20222;-80
2023/05/04 12:23:16;;;;;;;15.60;6.20;;;23.10;93.80;;;;;;4915817;29;20245;-79
2023/05/04 12:25:43;;;;;;;11.13;5.57;;;23.10;93.70;;;;;;4915072;29;20210;-78
2023/05/04 12:28:25;;;;;;;9.50;6.00;;;23.10;93.60;;;;;;4914632;29;20226;-77
2023/05/04 12:30:52;;;;;;;8.98;6.15;;;23.10;93.50;;;;;;4918914;29;20587;-80
2023/05/04 12:33:19;;;;;;;11.82;6.25;;;23.20;93.40;;;;;;4915953;29;20222;-76
2023/05/04 12:35:46;;;;;;;9.80;6.22;;;23.40;93.20;;;;;;4891470;29;20218;-77
2023/05/04 12:38:13;;;;;;;9.73;6.82;;;23.40;93.30;;;;;;4900754;29;20234;-77
2023/05/04 12:40:42;;;;;;;10.77;6.15;;;23.50;94.10;;;;;;4915052;29;20661;-77
2023/05/04 12:43:09;;;;;;;10.60;6.32;;;23.80;93.30;;;;;;4915546;29;20245;-76
2023/05/04 12:45:36;;;;;;;12.63;6.13;;;23.70;92.60;;;;;;4915159;29;20312;-79
2023/05/04 12:48:03;;;;;;;8.27;6.40;;;23.80;92.10;;;;;;4915245;29;20228;-76
2023/05/04 12:50:30;;;;;;;7.88;5.72;;;23.80;92.00;;;;;;4915168;29;20209;-76
2023/05/04 12:52:57;;;;;;;10.10;6.05;;;23.60;92.30;;;;;;4914945;29;20623;-77
2023/05/04 12:55:24;;;;;;;10.80;6.40;;;23.70;92.70;;;;;;4914205;29;20237;-77
2023/05/04 12:57:51;;;;;;;24.90;7.68;;;23.70;92.50;;;;;;4914795;29;20321;-76
2023/05/04 13:00:18;;;;;;;13.65;7.70;;;23.80;91.90;;;;;;4914855;29;20623;-77
2023/05/04 13:02:45;;;;;;;10.27;6.47;;;23.80;91.10;;;;;;4916069;29;20702;-77
2023/05/04 13:05:12;;;;;;;11.10;6.35;;;23.70;90.90;;;;;;4915325;29;20237;-77
2023/05/04 13:07:39;;;;;;;9.07;5.70;;;23.90;91.40;;;;;;4920815;29;20722;-77
2023/05/04 13:10:06;;;;;;;12.80;6.20;;;23.90;91.10;;;;;;4913750;29;20214;-78
2023/05/04 13:12:33;;;;;;;13.13;7.25;;;24.00;91.40;;;;;;4895718;29;20454;-74
2023/05/04 13:15:00;;;;;;;14.93;6.68;;;24.10;90.30;;;;;;4914826;29;20584;-75